sensor_id;sensor_type;location;lat;lon;timestamp;pressure;altitude;pressure_sealevel;temperature;humidity
59654;BME280;66556;52.008;5.432;2023-03-01T00:01:11;103217.0;;;6.54;45.26
59654;BME280;66556;52.008;5.432;2023-03-01T00:02:49;103215.00000000001;;;6.49;45.8
59654;BME280;66556;52.008;5.432;2023-03-01T00:04:26;103213.00000000001;;;6.26;46.42
59654;BME280;66556;52.008;5.432;2023-03-01T00:07:40;103216.00000000001;;;6.32;46.02
59654;BME280;66556;52.008;5.432;2023-03-01T00:09:17;103217.0;;;6.5;45.68
59654;BME280;66556;52.008;5.432;2023-03-01T00:11:02;103216.00000000001;;;6.46;45.83
59654;BME280;66556;52.008;5.432;2023-03-01T00:14:16;103217.0;;;6.47;45.54
59654;BME280;66556;52.008;5.432;2023-03-01T00:15:52;103217.0;;;6.32;45.89
59654;BME280;66556;52.008;5.432;2023-03-01T00:17:28;103220.0;;;6.49;45.87
59654;BME280;66556;52.008;5.432;2023-03-01T00:19:04;103215.00000000001;;;6.25;46.4
59654;BME280;66556;52.008;5.432;2023-03-01T00:22:17;103216.00000000001;;;6.39;46.06
59654;BME280;66556;52.008;5.432;2023-03-01T00:23:54;103214.00000000001;;;6.3;46.02
59654;BME280;66556;52.008;5.432;2023-03-01T00:25:31;103209.99999999999;;;6.32;45.93
59654;BME280;66556;52.008;5.432;2023-03-01T00:28:43;103209.99999999999;;;6.28;46.22
59654;BME280;66556;52.008;5.432;2023-03-01T00:30:20;103208.99999999999;;;5.85;46.83
59654;BME280;66556;52.008;5.432;2023-03-01T00:31:56;103203.0;;;5.82;47.44
59654;BME280;66556;52.008;5.432;2023-03-01T00:35:09;103207.0;;;5.81;47.53
59654;BME280;66556;52.008;5.432;2023-03-01T00:36:46;103200.0;;;6.1;46.69
59654;BME280;66556;52.008;5.432;2023-03-01T00:38:22;103200.0;;;6.11;46.16
59654;BME280;66556;52.008;5.432;2023-03-01T00:39:58;103201.0;;;6.15;46.63
59654;BME280;66556;52.008;5.432;2023-03-01T00:43:10;103198.0;;;6.3;46.23
59654;BME280;66556;52.008;5.432;2023-03-01T00:44:46;103200.0;;;5.96;46.86
59654;BME280;66556;52.008;5.432;2023-03-01T00:46:24;103206.0;;;6.35;46.03
59654;BME280;66556;52.008;5.432;2023-03-01T00:49:38;103206.0;;;6.49;45.4
59654;BME280;66556;52.008;5.432;2023-03-01T00:51:16;103206.0;;;6.47;45.55
59654;BME280;66556;52.008;5.432;2023-03-01T00:52:53;103204.0;;;6.56;45.23
59654;BME280;66556;52.008;5.432;2023-03-01T00:56:09;103201.0;;;6.17;46.11
59654;BME280;66556;52.008;5.432;2023-03-01T00:57:45;103205.0;;;6.42;45.97
59654;BME280;66556;52.008;5.432;2023-03-01T00:59:22;103199.0;;;6.24;46.1
59654;BME280;66556;52.008;5.432;2023-03-01T01:00:58;103202.0;;;6.32;45.98
59654;BME280;66556;52.008;5.432;2023-03-01T01:04:12;103199.0;;;6.22;46.41
59654;BME280;66556;52.008;5.432;2023-03-01T01:05:49;103199.0;;;6.04;47.12
59654;BME280;66556;52.008;5.432;2023-03-01T01:07:25;103191.00000000001;;;5.96;46.84
59654;BME280;66556;52.008;5.432;2023-03-01T01:10:43;103189.00000000001;;;6.09;46.86
59654;BME280;66556;52.008;5.432;2023-03-01T01:12:20;103191.00000000001;;;6.12;46.53
59654;BME280;66556;52.008;5.432;2023-03-01T01:13:57;103190.00000000001;;;6.29;46.43
59654;BME280;66556;52.008;5.432;2023-03-01T01:15:33;103186.99999999999;;;6.19;46.35
59654;BME280;66556;52.008;5.432;2023-03-01T01:18:46;103184.99999999999;;;6.38;46.18
59654;BME280;66556;52.008;5.432;2023-03-01T01:20:22;103181.0;;;6.29;46.35
59654;BME280;66556;52.008;5.432;2023-03-01T01:21:59;103176.0;;;5.94;47.51
59654;BME280;66556;52.008;5.432;2023-03-01T01:25:12;103171.0;;;5.98;47.06
59654;BME280;66556;52.008;5.432;2023-03-01T01:26:48;103172.0;;;6.28;46.21
59654;BME280;66556;52.008;5.432;2023-03-01T01:28:25;103168.0;;;6.3;46.05
59654;BME280;66556;52.008;5.432;2023-03-01T01:31:40;103167.0;;;6.23;46.8
59654;BME280;66556;52.008;5.432;2023-03-01T01:33:17;103168.0;;;6.17;46.88
59654;BME280;66556;52.008;5.432;2023-03-01T01:34:53;103167.0;;;6.41;46.4
59654;BME280;66556;52.008;5.432;2023-03-01T01:36:30;103166.00000000001;;;6.39;46.15
59654;BME280;66556;52.008;5.432;2023-03-01T01:39:45;103158.99999999999;;;6.23;46.91
59654;BME280;66556;52.008;5.432;2023-03-01T01:41:22;103157.0;;;5.97;47.47
59654;BME280;66556;52.008;5.432;2023-03-01T01:42:59;103159.99999999999;;;6.4;46.86
59654;BME280;66556;52.008;5.432;2023-03-01T01:46:19;103156.0;;;6.35;47.13
59654;BME280;66556;52.008;5.432;2023-03-01T01:47:59;103158.0;;;6.23;47.4
59654;BME280;66556;52.008;5.432;2023-03-01T01:49:42;103158.99999999999;;;5.51;49.72
59654;BME280;66556;52.008;5.432;2023-03-01T01:51:24;103158.0;;;5.62;49.84
59654;BME280;66556;52.008;5.432;2023-03-01T01:54:42;103157.0;;;5.87;49.25
59654;BME280;66556;52.008;5.432;2023-03-01T01:56:23;103156.0;;;5.78;49.68
59654;BME280;66556;52.008;5.432;2023-03-01T01:58:04;103152.0;;;6.04;49.23
59654;BME280;66556;52.008;5.432;2023-03-01T01:59:46;103148.0;;;6.0;49.04
59654;BME280;66556;52.008;5.432;2023-03-01T02:03:07;103148.0;;;6.09;48.96
59654;BME280;66556;52.008;5.432;2023-03-01T02:04:44;103149.0;;;5.88;49.97
59654;BME280;66556;52.008;5.432;2023-03-01T02:06:26;103143.0;;;5.7;50.72
59654;BME280;66556;52.008;5.432;2023-03-01T02:08:06;103141.00000000001;;;5.92;50.54
59654;BME280;66556;52.008;5.432;2023-03-01T02:11:25;103141.00000000001;;;5.66;51.69
59654;BME280;66556;52.008;5.432;2023-03-01T02:13:03;103138.00000000001;;;5.64;51.69
59654;BME280;66556;52.008;5.432;2023-03-01T02:14:40;103141.00000000001;;;5.57;51.6
59654;BME280;66556;52.008;5.432;2023-03-01T02:16:17;103140.00000000001;;;5.42;52.59
59654;BME280;66556;52.008;5.432;2023-03-01T02:19:41;103139.00000000001;;;5.63;51.71
59654;BME280;66556;52.008;5.432;2023-03-01T02:21:42;103143.0;;;5.71;51.79
59654;BME280;66556;52.008;5.432;2023-03-01T02:23:25;103142.0;;;5.54;52.7
59654;BME280;66556;52.008;5.432;2023-03-01T02:25:09;103140.00000000001;;;5.65;52.48
59654;BME280;66556;52.008;5.432;2023-03-01T02:26:52;103134.99999999999;;;5.55;52.92
59654;BME280;66556;52.008;5.432;2023-03-01T02:30:10;103138.00000000001;;;5.53;53.25
59654;BME280;66556;52.008;5.432;2023-03-01T02:31:47;103141.00000000001;;;5.61;52.82
59654;BME280;66556;52.008;5.432;2023-03-01T02:33:25;103133.99999999999;;;5.7;52.64
59654;BME280;66556;52.008;5.432;2023-03-01T02:35:02;103128.0;;;5.69;52.63
59654;BME280;66556;52.008;5.432;2023-03-01T02:38:18;103131.0;;;5.49;53.34
59654;BME280;66556;52.008;5.432;2023-03-01T02:39:58;103132.0;;;5.64;53.59
59654;BME280;66556;52.008;5.432;2023-03-01T02:41:38;103127.0;;;5.71;53.44
59654;BME280;66556;52.008;5.432;2023-03-01T02:44:58;103125.0;;;5.73;52.78
59654;BME280;66556;52.008;5.432;2023-03-01T02:46:42;103131.0;;;5.99;52.32
59654;BME280;66556;52.008;5.432;2023-03-01T02:48:18;103126.0;;;5.66;52.97
59654;BME280;66556;52.008;5.432;2023-03-01T02:49:55;103125.0;;;5.81;52.25
59654;BME280;66556;52.008;5.432;2023-03-01T02:53:28;103126.0;;;5.88;51.63
59654;BME280;66556;52.008;5.432;2023-03-01T02:55:11;103127.0;;;5.62;52.95
59654;BME280;66556;52.008;5.432;2023-03-01T02:56:50;103125.0;;;5.59;53.18
59654;BME280;66556;52.008;5.432;2023-03-01T02:58:27;103114.00000000001;;;5.75;52.66
59654;BME280;66556;52.008;5.432;2023-03-01T03:00:05;103117.0;;;5.82;52.48
59654;BME280;66556;52.008;5.432;2023-03-01T03:03:21;103117.0;;;5.83;52.35
59654;BME280;66556;52.008;5.432;2023-03-01T03:04:57;103113.00000000001;;;5.64;53.08
59654;BME280;66556;52.008;5.432;2023-03-01T03:06:34;103113.00000000001;;;5.67;52.86
59654;BME280;66556;52.008;5.432;2023-03-01T03:09:46;103109.99999999999;;;5.66;52.94
59654;BME280;66556;52.008;5.432;2023-03-01T03:11:22;103113.00000000001;;;5.63;52.64
59654;BME280;66556;52.008;5.432;2023-03-01T03:13:00;103119.0;;;5.7;52.46
59654;BME280;66556;52.008;5.432;2023-03-01T03:16:14;103117.0;;;5.69;52.58
59654;BME280;66556;52.008;5.432;2023-03-01T03:17:51;103117.0;;;5.76;52.14
59654;BME280;66556;52.008;5.432;2023-03-01T03:19:28;103113.00000000001;;;5.76;52.31
59654;BME280;66556;52.008;5.432;2023-03-01T03:21:07;103109.99999999999;;;5.62;52.52
59654;BME280;66556;52.008;5.432;2023-03-01T03:24:19;103105.0;;;5.64;52.14
59654;BME280;66556;52.008;5.432;2023-03-01T03:25:55;103101.0;;;5.8;51.9
59654;BME280;66556;52.008;5.432;2023-03-01T03:27:32;103095.0;;;5.62;52.05
59654;BME280;66556;52.008;5.432;2023-03-01T03:30:44;103097.0;;;5.61;51.54
59654;BME280;66556;52.008;5.432;2023-03-01T03:32:20;103102.0;;;5.6;51.68
59654;BME280;66556;52.008;5.432;2023-03-01T03:33:56;103096.0;;;5.53;51.57
59654;BME280;66556;52.008;5.432;2023-03-01T03:37:16;103091.00000000001;;;5.56;51.56
59654;BME280;66556;52.008;5.432;2023-03-01T03:38:52;103094.0;;;5.49;51.41
59654;BME280;66556;52.008;5.432;2023-03-01T03:40:29;103094.0;;;5.55;50.99
59654;BME280;66556;52.008;5.432;2023-03-01T03:42:08;103094.0;;;5.4;51.63
59654;BME280;66556;52.008;5.432;2023-03-01T03:45:20;103093.0;;;5.34;51.4
59654;BME280;66556;52.008;5.432;2023-03-01T03:46:56;103095.0;;;5.58;50.88
59654;BME280;66556;52.008;5.432;2023-03-01T03:48:33;103090.00000000001;;;5.45;50.69
59654;BME280;66556;52.008;5.432;2023-03-01T03:51:48;103093.0;;;5.56;50.7
59654;BME280;66556;52.008;5.432;2023-03-01T03:53:26;103092.0;;;5.51;50.29
59654;BME280;66556;52.008;5.432;2023-03-01T03:55:04;103084.99999999999;;;5.71;49.55
59654;BME280;66556;52.008;5.432;2023-03-01T03:56:40;103082.0;;;5.51;49.81
59654;BME280;66556;52.008;5.432;2023-03-01T03:59:54;103083.99999999999;;;5.79;49.04
59654;BME280;66556;52.008;5.432;2023-03-01T04:01:31;103082.0;;;5.77;48.7
59654;BME280;66556;52.008;5.432;2023-03-01T04:03:07;103083.99999999999;;;5.7;48.8
59654;BME280;66556;52.008;5.432;2023-03-01T04:06:21;103078.0;;;5.76;48.86
59654;BME280;66556;52.008;5.432;2023-03-01T04:07:59;103081.0;;;5.67;48.65
59654;BME280;66556;52.008;5.432;2023-03-01T04:09:35;103079.0;;;5.69;48.64
59654;BME280;66556;52.008;5.432;2023-03-01T04:11:12;103077.0;;;5.7;48.55
59654;BME280;66556;52.008;5.432;2023-03-01T04:14:25;103078.0;;;5.69;48.78
59654;BME280;66556;52.008;5.432;2023-03-01T04:16:01;103079.0;;;5.6;48.5
59654;BME280;66556;52.008;5.432;2023-03-01T04:17:37;103082.0;;;5.57;48.68
59654;BME280;66556;52.008;5.432;2023-03-01T04:20:50;103084.99999999999;;;5.57;48.34
59654;BME280;66556;52.008;5.432;2023-03-01T04:22:26;103082.0;;;5.61;48.12
59654;BME280;66556;52.008;5.432;2023-03-01T04:24:03;103083.99999999999;;;5.54;48.27
59654;BME280;66556;52.008;5.432;2023-03-01T04:27:17;103083.0;;;5.55;47.95
59654;BME280;66556;52.008;5.432;2023-03-01T04:28:54;103080.0;;;5.55;48.3
59654;BME280;66556;52.008;5.432;2023-03-01T04:30:30;103081.0;;;5.77;47.41
59654;BME280;66556;52.008;5.432;2023-03-01T04:32:06;103081.0;;;5.66;47.81
59654;BME280;66556;52.008;5.432;2023-03-01T04:35:20;103083.0;;;5.59;47.91
59654;BME280;66556;52.008;5.432;2023-03-01T04:36:56;103081.0;;;5.65;47.92
59654;BME280;66556;52.008;5.432;2023-03-01T04:38:33;103080.0;;;5.57;48.05
59654;BME280;66556;52.008;5.432;2023-03-01T04:41:46;103074.0;;;5.67;47.39
59654;BME280;66556;52.008;5.432;2023-03-01T04:43:23;103076.0;;;5.4;48.63
59654;BME280;66556;52.008;5.432;2023-03-01T04:44:59;103077.0;;;5.46;48.42
59654;BME280;66556;52.008;5.432;2023-03-01T04:48:13;103074.0;;;5.43;48.62
59654;BME280;66556;52.008;5.432;2023-03-01T04:49:49;103067.0;;;5.47;48.56
59654;BME280;66556;52.008;5.432;2023-03-01T04:51:25;103065.00000000001;;;5.13;49.5
59654;BME280;66556;52.008;5.432;2023-03-01T04:53:01;103067.0;;;5.58;48.48
59654;BME280;66556;52.008;5.432;2023-03-01T04:56:15;103067.0;;;5.66;47.91
59654;BME280;66556;52.008;5.432;2023-03-01T04:57:52;103067.0;;;5.57;48.11
59654;BME280;66556;52.008;5.432;2023-03-01T04:59:29;103066.00000000001;;;5.57;48.18
59654;BME280;66556;52.008;5.432;2023-03-01T05:02:48;103059.99999999999;;;5.56;48.0
59654;BME280;66556;52.008;5.432;2023-03-01T05:04:24;103063.00000000001;;;5.44;48.37
59654;BME280;66556;52.008;5.432;2023-03-01T05:06:00;103049.0;;;5.53;48.01
59654;BME280;66556;52.008;5.432;2023-03-01T05:09:13;103049.0;;;5.6;47.87
59654;BME280;66556;52.008;5.432;2023-03-01T05:10:51;103045.0;;;5.7;47.08
59654;BME280;66556;52.008;5.432;2023-03-01T05:12:28;103041.00000000001;;;5.62;47.57
59654;BME280;66556;52.008;5.432;2023-03-01T05:14:05;103038.00000000001;;;5.6;47.34
59654;BME280;66556;52.008;5.432;2023-03-01T05:17:18;103031.0;;;5.72;47.38
59654;BME280;66556;52.008;5.432;2023-03-01T05:18:54;103030.0;;;5.76;46.83
59654;BME280;66556;52.008;5.432;2023-03-01T05:20:30;103024.0;;;5.39;47.7
59654;BME280;66556;52.008;5.432;2023-03-01T05:23:43;103029.0;;;5.61;47.25
59654;BME280;66556;52.008;5.432;2023-03-01T05:25:20;103026.0;;;5.67;47.11
59654;BME280;66556;52.008;5.432;2023-03-01T05:26:58;103022.0;;;5.54;47.19
59654;BME280;66556;52.008;5.432;2023-03-01T05:28:35;103022.0;;;5.44;47.64
59654;BME280;66556;52.008;5.432;2023-03-01T05:31:48;103018.0;;;5.14;48.58
59654;BME280;66556;52.008;5.432;2023-03-01T05:33:26;103021.0;;;5.34;47.83
59654;BME280;66556;52.008;5.432;2023-03-01T05:35:03;103007.0;;;5.2;48.47
59654;BME280;66556;52.008;5.432;2023-03-01T05:38:16;103008.99999999999;;;5.38;48.28
59654;BME280;66556;52.008;5.432;2023-03-01T05:39:52;103000.0;;;5.17;48.99
59654;BME280;66556;52.008;5.432;2023-03-01T05:41:28;102996.0;;;5.22;48.8
59654;BME280;66556;52.008;5.432;2023-03-01T05:44:41;102998.0;;;5.53;47.81
59654;BME280;66556;52.008;5.432;2023-03-01T05:46:18;102995.0;;;5.15;48.4
59654;BME280;66556;52.008;5.432;2023-03-01T05:47:54;102992.0;;;5.07;48.88
59654;BME280;66556;52.008;5.432;2023-03-01T05:49:31;102993.0;;;5.12;48.65
59654;BME280;66556;52.008;5.432;2023-03-01T05:52:44;102995.0;;;4.84;49.62
59654;BME280;66556;52.008;5.432;2023-03-01T05:54:21;102992.0;;;5.07;49.41
59654;BME280;66556;52.008;5.432;2023-03-01T05:55:59;102996.0;;;5.0;49.26
59654;BME280;66556;52.008;5.432;2023-03-01T05:59:11;102996.0;;;5.13;49.65
59654;BME280;66556;52.008;5.432;2023-03-01T06:00:48;102993.0;;;5.16;48.99
59654;BME280;66556;52.008;5.432;2023-03-01T06:02:24;102994.0;;;5.19;49.57
59654;BME280;66556;52.008;5.432;2023-03-01T06:05:38;102994.0;;;5.2;49.45
59654;BME280;66556;52.008;5.432;2023-03-01T06:07:15;102992.0;;;5.03;50.03
59654;BME280;66556;52.008;5.432;2023-03-01T06:08:51;102992.0;;;5.05;49.95
59654;BME280;66556;52.008;5.432;2023-03-01T06:10:28;102989.00000000001;;;5.07;49.95
59654;BME280;66556;52.008;5.432;2023-03-01T06:13:43;102986.99999999999;;;5.03;50.15
59654;BME280;66556;52.008;5.432;2023-03-01T06:15:20;102983.0;;;5.07;50.23
59654;BME280;66556;52.008;5.432;2023-03-01T06:16:57;102990.00000000001;;;5.17;49.53
59654;BME280;66556;52.008;5.432;2023-03-01T06:20:13;102993.0;;;5.05;50.22
59654;BME280;66556;52.008;5.432;2023-03-01T06:21:50;102994.0;;;5.11;49.99
59654;BME280;66556;52.008;5.432;2023-03-01T06:23:26;102992.0;;;5.03;50.16
59654;BME280;66556;52.008;5.432;2023-03-01T06:26:40;102992.0;;;5.08;50.24
59654;BME280;66556;52.008;5.432;2023-03-01T06:28:16;102993.0;;;4.92;50.52
59654;BME280;66556;52.008;5.432;2023-03-01T06:29:53;103001.0;;;4.82;50.86
59654;BME280;66556;52.008;5.432;2023-03-01T06:31:29;102999.0;;;5.14;49.95
59654;BME280;66556;52.008;5.432;2023-03-01T06:34:41;102993.0;;;5.05;50.38
59654;BME280;66556;52.008;5.432;2023-03-01T06:36:17;102994.0;;;4.92;50.44
59654;BME280;66556;52.008;5.432;2023-03-01T06:37:53;102997.0;;;5.14;49.98
59654;BME280;66556;52.008;5.432;2023-03-01T06:41:07;102995.0;;;5.14;50.13
59654;BME280;66556;52.008;5.432;2023-03-01T06:42:48;102995.0;;;4.99;50.78
59654;BME280;66556;52.008;5.432;2023-03-01T06:44:25;103001.0;;;4.75;51.39
59654;BME280;66556;52.008;5.432;2023-03-01T06:46:04;103003.0;;;4.79;51.32
59654;BME280;66556;52.008;5.432;2023-03-01T06:49:16;103001.0;;;4.92;51.08
59654;BME280;66556;52.008;5.432;2023-03-01T06:50:52;102994.0;;;5.04;50.69
59654;BME280;66556;52.008;5.432;2023-03-01T06:52:30;102992.0;;;4.92;51.0
59654;BME280;66556;52.008;5.432;2023-03-01T06:55:43;102992.0;;;4.82;51.75
59654;BME280;66556;52.008;5.432;2023-03-01T06:57:19;102991.00000000001;;;4.75;52.1
59654;BME280;66556;52.008;5.432;2023-03-01T06:58:55;102994.0;;;5.12;52.1
59654;BME280;66556;52.008;5.432;2023-03-01T07:02:10;102999.0;;;5.45;50.74
59654;BME280;66556;52.008;5.432;2023-03-01T07:03:47;102999.0;;;5.28;51.43
59654;BME280;66556;52.008;5.432;2023-03-01T07:05:23;102998.0;;;5.38;51.1
59654;BME280;66556;52.008;5.432;2023-03-01T07:06:59;102998.0;;;5.78;50.59
59654;BME280;66556;52.008;5.432;2023-03-01T07:10:12;103001.0;;;5.69;50.38
59654;BME280;66556;52.008;5.432;2023-03-01T07:11:49;103001.0;;;5.83;50.11
59654;BME280;66556;52.008;5.432;2023-03-01T07:13:26;103000.0;;;5.97;50.23
59654;BME280;66556;52.008;5.432;2023-03-01T07:16:40;103003.0;;;6.04;49.51
59654;BME280;66556;52.008;5.432;2023-03-01T07:18:16;103005.0;;;6.05;50.28
59654;BME280;66556;52.008;5.432;2023-03-01T07:19:52;103004.0;;;6.25;50.18
59654;BME280;66556;52.008;5.432;2023-03-01T07:23:06;102996.0;;;6.32;50.06
59654;BME280;66556;52.008;5.432;2023-03-01T07:24:43;102998.0;;;6.19;49.86
59654;BME280;66556;52.008;5.432;2023-03-01T07:26:19;103000.0;;;6.21;49.56
59654;BME280;66556;52.008;5.432;2023-03-01T07:27:55;103004.0;;;6.22;49.83
59654;BME280;66556;52.008;5.432;2023-03-01T07:31:07;103005.0;;;6.19;49.96
59654;BME280;66556;52.008;5.432;2023-03-01T07:32:44;103000.0;;;6.32;49.73
59654;BME280;66556;52.008;5.432;2023-03-01T07:34:20;103000.0;;;6.46;49.2
59654;BME280;66556;52.008;5.432;2023-03-01T07:37:33;103003.0;;;6.39;49.19
59654;BME280;66556;52.008;5.432;2023-03-01T07:39:09;103000.0;;;6.53;48.61
59654;BME280;66556;52.008;5.432;2023-03-01T07:40:46;103000.0;;;6.64;48.35
59654;BME280;66556;52.008;5.432;2023-03-01T07:43:59;103007.0;;;6.78;47.76
59654;BME280;66556;52.008;5.432;2023-03-01T07:45:35;103006.0;;;6.83;48.02
59654;BME280;66556;52.008;5.432;2023-03-01T07:47:11;103007.0;;;6.8;48.11
59654;BME280;66556;52.008;5.432;2023-03-01T07:48:47;103013.00000000001;;;6.78;48.03
59654;BME280;66556;52.008;5.432;2023-03-01T07:51:59;103015.00000000001;;;6.85;47.92
59654;BME280;66556;52.008;5.432;2023-03-01T07:53:36;103017.0;;;6.76;48.0
59654;BME280;66556;52.008;5.432;2023-03-01T07:55:14;103016.00000000001;;;6.91;47.4
59654;BME280;66556;52.008;5.432;2023-03-01T07:58:26;103015.00000000001;;;6.99;47.24
59654;BME280;66556;52.008;5.432;2023-03-01T08:00:03;103011.99999999999;;;7.03;47.18
59654;BME280;66556;52.008;5.432;2023-03-01T08:01:41;103016.00000000001;;;6.99;47.65
59654;BME280;66556;52.008;5.432;2023-03-01T08:04:53;103017.0;;;7.27;47.41
59654;BME280;66556;52.008;5.432;2023-03-01T08:06:29;103014.00000000001;;;7.32;47.41
59654;BME280;66556;52.008;5.432;2023-03-01T08:08:05;103016.00000000001;;;7.54;47.02
59654;BME280;66556;52.008;5.432;2023-03-01T08:09:42;103019.0;;;7.58;46.96
59654;BME280;66556;52.008;5.432;2023-03-01T08:12:54;103019.0;;;7.57;46.55
59654;BME280;66556;52.008;5.432;2023-03-01T08:14:30;103018.0;;;7.67;46.14
59654;BME280;66556;52.008;5.432;2023-03-01T08:16:09;103022.0;;;7.83;46.39
59654;BME280;66556;52.008;5.432;2023-03-01T08:19:25;103020.0;;;8.1;45.9
59654;BME280;66556;52.008;5.432;2023-03-01T08:21:03;103018.0;;;8.09;45.5
59654;BME280;66556;52.008;5.432;2023-03-01T08:22:40;103023.0;;;8.27;44.56
59654;BME280;66556;52.008;5.432;2023-03-01T08:25:52;103021.0;;;8.38;45.2
59654;BME280;66556;52.008;5.432;2023-03-01T08:27:28;103024.0;;;8.26;45.02
59654;BME280;66556;52.008;5.432;2023-03-01T08:29:04;103019.0;;;8.15;44.83
59654;BME280;66556;52.008;5.432;2023-03-01T08:30:41;103015.00000000001;;;8.4;44.41
59654;BME280;66556;52.008;5.432;2023-03-01T08:33:56;103013.00000000001;;;8.48;44.66
59654;BME280;66556;52.008;5.432;2023-03-01T08:35:33;103014.00000000001;;;8.68;44.2
59654;BME280;66556;52.008;5.432;2023-03-01T08:37:09;103011.99999999999;;;8.81;43.81
59654;BME280;66556;52.008;5.432;2023-03-01T08:40:22;103008.0;;;8.91;44.06
59654;BME280;66556;52.008;5.432;2023-03-01T08:41:58;103007.0;;;9.03;43.28
59654;BME280;66556;52.008;5.432;2023-03-01T08:43:34;103008.0;;;8.88;42.9
59654;BME280;66556;52.008;5.432;2023-03-01T08:46:47;103002.0;;;9.05;43.16
59654;BME280;66556;52.008;5.432;2023-03-01T08:48:24;103003.0;;;9.11;43.5
59654;BME280;66556;52.008;5.432;2023-03-01T08:50:01;103003.0;;;9.31;43.51
59654;BME280;66556;52.008;5.432;2023-03-01T08:51:38;102999.0;;;9.49;42.97
59654;BME280;66556;52.008;5.432;2023-03-01T08:54:51;102999.0;;;9.53;42.83
59654;BME280;66556;52.008;5.432;2023-03-01T08:56:27;102992.0;;;9.53;42.49
59654;BME280;66556;52.008;5.432;2023-03-01T08:58:03;102989.00000000001;;;9.73;42.37
59654;BME280;66556;52.008;5.432;2023-03-01T09:01:17;102986.99999999999;;;9.98;41.49
59654;BME280;66556;52.008;5.432;2023-03-01T09:02:55;102994.0;;;9.85;41.11
59654;BME280;66556;52.008;5.432;2023-03-01T09:04:31;102996.0;;;9.85;40.83
59654;BME280;66556;52.008;5.432;2023-03-01T09:07:44;102990.00000000001;;;10.17;40.75
59654;BME280;66556;52.008;5.432;2023-03-01T09:09:20;102986.99999999999;;;10.3;40.08
59654;BME280;66556;52.008;5.432;2023-03-01T09:10:56;102981.0;;;10.39;39.51
59654;BME280;66556;52.008;5.432;2023-03-01T09:12:33;102975.0;;;10.64;39.79
59654;BME280;66556;52.008;5.432;2023-03-01T09:15:45;102973.0;;;10.66;39.71
59654;BME280;66556;52.008;5.432;2023-03-01T09:17:21;102970.0;;;10.35;38.4
59654;BME280;66556;52.008;5.432;2023-03-01T09:18:57;102972.0;;;10.93;39.39
59654;BME280;66556;52.008;5.432;2023-03-01T09:22:10;102967.0;;;10.7;37.85
59654;BME280;66556;52.008;5.432;2023-03-01T09:23:47;102958.99999999999;;;10.71;37.67
59654;BME280;66556;52.008;5.432;2023-03-01T09:25:24;102956.0;;;10.89;36.96
59654;BME280;66556;52.008;5.432;2023-03-01T09:28:37;102950.0;;;11.03;36.6
59654;BME280;66556;52.008;5.432;2023-03-01T09:30:14;102951.0;;;10.95;37.18
59654;BME280;66556;52.008;5.432;2023-03-01T09:31:50;102953.0;;;11.0;37.51
59654;BME280;66556;52.008;5.432;2023-03-01T09:33:26;102952.0;;;10.92;36.92
59654;BME280;66556;52.008;5.432;2023-03-01T09:36:40;102948.0;;;11.21;36.32
59654;BME280;66556;52.008;5.432;2023-03-01T09:38:16;102942.0;;;11.27;35.43
59654;BME280;66556;52.008;5.432;2023-03-01T09:39:52;102936.99999999999;;;11.2;35.9
59654;BME280;66556;52.008;5.432;2023-03-01T09:43:40;102938.00000000001;;;11.32;36.19
59654;BME280;66556;52.008;5.432;2023-03-01T09:45:28;102930.0;;;11.64;36.49
59654;BME280;66556;52.008;5.432;2023-03-01T09:47:15;102934.99999999999;;;11.81;34.9
59654;BME280;66556;52.008;5.432;2023-03-01T09:48:57;102932.0;;;12.45;36.06
59654;BME280;66556;52.008;5.432;2023-03-01T09:50:39;102933.99999999999;;;12.47;35.35
59654;BME280;66556;52.008;5.432;2023-03-01T09:52:23;102929.0;;;12.65;33.54
59654;BME280;66556;52.008;5.432;2023-03-01T09:55:44;102930.0;;;13.21;33.93
59654;BME280;66556;52.008;5.432;2023-03-01T09:57:28;102923.0;;;13.29;32.9
59654;BME280;66556;52.008;5.432;2023-03-01T09:59:17;102921.0;;;13.62;32.18
59654;BME280;66556;52.008;5.432;2023-03-01T10:01:03;102926.0;;;13.52;30.81
59654;BME280;66556;52.008;5.432;2023-03-01T10:02:49;102925.0;;;14.19;32.68
59654;BME280;66556;52.008;5.432;2023-03-01T10:06:20;102930.0;;;14.31;30.4
59654;BME280;66556;52.008;5.432;2023-03-01T10:08:06;102930.0;;;14.51;31.32
59654;BME280;66556;52.008;5.432;2023-03-01T10:10:05;102929.0;;;14.24;29.37
59654;BME280;66556;52.008;5.432;2023-03-01T10:11:43;102933.99999999999;;;13.71;29.3
59654;BME280;66556;52.008;5.432;2023-03-01T10:13:25;102928.0;;;14.39;29.01
59654;BME280;66556;52.008;5.432;2023-03-01T10:18:30;102936.99999999999;;;14.15;29.19
59654;BME280;66556;52.008;5.432;2023-03-01T10:20:17;102929.0;;;14.95;28.57
59654;BME280;66556;52.008;5.432;2023-03-01T10:22:03;102933.0;;;14.77;28.81
59654;BME280;66556;52.008;5.432;2023-03-01T10:23:46;102928.0;;;14.58;29.35
59654;BME280;66556;52.008;5.432;2023-03-01T10:27:23;102926.0;;;15.59;28.8
59654;BME280;66556;52.008;5.432;2023-03-01T10:29:03;102917.0;;;15.5;29.11
59654;BME280;66556;52.008;5.432;2023-03-01T10:30:40;102914.00000000001;;;15.53;26.9
59654;BME280;66556;52.008;5.432;2023-03-01T10:35:33;102915.00000000001;;;15.33;26.58
59654;BME280;66556;52.008;5.432;2023-03-01T10:37:12;102909.99999999999;;;15.48;26.78
59654;BME280;66556;52.008;5.432;2023-03-01T10:38:51;102908.0;;;15.44;26.23
59654;BME280;66556;52.008;5.432;2023-03-01T10:40:28;102903.0;;;15.23;25.58
59654;BME280;66556;52.008;5.432;2023-03-01T10:43:56;102900.0;;;16.09;26.93
59654;BME280;66556;52.008;5.432;2023-03-01T10:45:34;102898.0;;;16.22;26.12
59654;BME280;66556;52.008;5.432;2023-03-01T10:47:17;102892.0;;;16.02;25.93
59654;BME280;66556;52.008;5.432;2023-03-01T10:49:07;102892.0;;;16.28;25.97
59654;BME280;66556;52.008;5.432;2023-03-01T10:51:06;102881.0;;;16.5;26.08
59654;BME280;66556;52.008;5.432;2023-03-01T10:54:34;102883.99999999999;;;16.25;24.32
59654;BME280;66556;52.008;5.432;2023-03-01T10:56:12;102881.0;;;16.25;25.43